sensor_id;sensor_type;location;lat;lon;timestamp;temperature;humidity
20438;DHT22;17436;50.338;8.810;2022-09-09T00:01:46;16.70;98.10
20438;DHT22;17436;50.338;8.810;2022-09-09T00:04:25;16.70;99.30
20438;DHT22;17436;50.338;8.810;2022-09-09T00:06:59;16.70;98.40
20438;DHT22;17436;50.338;8.810;2022-09-09T00:09:29;16.50;99.20
20438;DHT22;17436;50.338;8.810;2022-09-09T00:12:01;16.60;99.20
20438;DHT22;17436;50.338;8.810;2022-09-09T00:14:35;16.50;99.90
20438;DHT22;17436;50.338;8.810;2022-09-09T00:17:12;16.50;99.90
20438;DHT22;17436;50.338;8.810;2022-09-09T00:19:43;16.40;99.90
20438;DHT22;17436;50.338;8.810;2022-09-09T00:22:16;16.40;99.90
20438;DHT22;17436;50.338;8.810;2022-09-09T00:24:45;16.60;99.90
20438;DHT22;17436;50.338;8.810;2022-09-09T00:27:19;16.50;99.90
20438;DHT22;17436;50.338;8.810;2022-09-09T00:29:53;16.60;99.90
20438;DHT22;17436;50.338;8.810;2022-09-09T00:32:27;16.40;99.90
20438;DHT22;17436;50.338;8.810;2022-09-09T00:34:58;16.50;99.90
20438;DHT22;17436;50.338;8.810;2022-09-09T00:37:26;16.60;99.90
20438;DHT22;17436;50.338;8.810;2022-09-09T00:39:59;16.60;99.90
20438;DHT22;17436;50.338;8.810;2022-09-09T00:42:38;16.60;99.90
20438;DHT22;17436;50.338;8.810;2022-09-09T00:45:19;16.80;99.90
20438;DHT22;17436;50.338;8.810;2022-09-09T00:47:54;16.90;98.70
20438;DHT22;17436;50.338;8.810;2022-09-09T00:50:38;16.80;98.80
20438;DHT22;17436;50.338;8.810;2022-09-09T00:53:24;16.80;99.90
20438;DHT22;17436;50.338;8.810;2022-09-09T00:55:59;16.80;99.50
20438;DHT22;17436;50.338;8.810;2022-09-09T00:58:29;16.80;97.90
20438;DHT22;17436;50.338;8.810;2022-09-09T01:00:59;16.80;98.70
20438;DHT22;17436;50.338;8.810;2022-09-09T01:03:34;16.80;97.80
20438;DHT22;17436;50.338;8.810;2022-09-09T01:06:12;16.80;97.50
20438;DHT22;17436;50.338;8.810;2022-09-09T01:11:47;16.90;98.30
20438;DHT22;17436;50.338;8.810;2022-09-09T01:14:27;17.20;96.70
20438;DHT22;17436;50.338;8.810;2022-09-09T01:17:00;17.00;95.70
20438;DHT22;17436;50.338;8.810;2022-09-09T01:19:40;17.10;96.00
20438;DHT22;17436;50.338;8.810;2022-09-09T01:22:15;17.00;93.80
20438;DHT22;17436;50.338;8.810;2022-09-09T01:25:09;17.10;94.90
20438;DHT22;17436;50.338;8.810;2022-09-09T01:27:43;17.30;93.90
20438;DHT22;17436;50.338;8.810;2022-09-09T01:30:11;17.30;93.00
20438;DHT22;17436;50.338;8.810;2022-09-09T01:32:42;17.10;92.60
20438;DHT22;17436;50.338;8.810;2022-09-09T01:35:12;17.20;93.00
20438;DHT22;17436;50.338;8.810;2022-09-09T01:37:41;17.30;93.00
20438;DHT22;17436;50.338;8.810;2022-09-09T01:40:08;17.30;92.50
20438;DHT22;17436;50.338;8.810;2022-09-09T01:42:35;17.30;91.80
20438;DHT22;17436;50.338;8.810;2022-09-09T01:45:05;17.30;92.30
20438;DHT22;17436;50.338;8.810;2022-09-09T01:47:32;17.40;91.90
20438;DHT22;17436;50.338;8.810;2022-09-09T01:49:59;17.40;91.10
20438;DHT22;17436;50.338;8.810;2022-09-09T01:52:28;17.50;91.20
20438;DHT22;17436;50.338;8.810;2022-09-09T01:54:55;17.50;91.30
20438;DHT22;17436;50.338;8.810;2022-09-09T01:57:26;17.40;91.20
20438;DHT22;17436;50.338;8.810;2022-09-09T02:00:03;17.40;91.00
20438;DHT22;17436;50.338;8.810;2022-09-09T02:02:37;17.30;90.50
20438;DHT22;17436;50.338;8.810;2022-09-09T02:05:24;17.40;90.90
20438;DHT22;17436;50.338;8.810;2022-09-09T02:07:59;17.30;91.00
20438;DHT22;17436;50.338;8.810;2022-09-09T02:10:31;17.20;90.80
20438;DHT22;17436;50.338;8.810;2022-09-09T02:13:02;17.00;92.30
20438;DHT22;17436;50.338;8.810;2022-09-09T02:15:33;17.10;92.30
20438;DHT22;17436;50.338;8.810;2022-09-09T02:18:06;17.00;91.70
20438;DHT22;17436;50.338;8.810;2022-09-09T02:20:37;16.90;92.90
20438;DHT22;17436;50.338;8.810;2022-09-09T02:23:05;16.90;94.30
20438;DHT22;17436;50.338;8.810;2022-09-09T02:25:35;17.00;93.30
20438;DHT22;17436;50.338;8.810;2022-09-09T02:28:04;17.00;93.90
20438;DHT22;17436;50.338;8.810;2022-09-09T02:30:34;17.00;93.40
20438;DHT22;17436;50.338;8.810;2022-09-09T02:33:04;17.10;93.00
20438;DHT22;17436;50.338;8.810;2022-09-09T02:35:33;17.00;92.90
20438;DHT22;17436;50.338;8.810;2022-09-09T02:38:05;17.00;92.40
20438;DHT22;17436;50.338;8.810;2022-09-09T02:40:33;16.80;92.90
20438;DHT22;17436;50.338;8.810;2022-09-09T02:43:00;16.60;95.50
20438;DHT22;17436;50.338;8.810;2022-09-09T02:45:34;16.40;97.30
20438;DHT22;17436;50.338;8.810;2022-09-09T02:48:11;16.50;96.70
20438;DHT22;17436;50.338;8.810;2022-09-09T02:50:48;16.70;94.20
20438;DHT22;17436;50.338;8.810;2022-09-09T02:53:18;16.80;92.90
20438;DHT22;17436;50.338;8.810;2022-09-09T02:55:47;16.70;92.80
20438;DHT22;17436;50.338;8.810;2022-09-09T02:58:16;16.70;93.50
20438;DHT22;17436;50.338;8.810;2022-09-09T03:00:45;16.70;94.10
20438;DHT22;17436;50.338;8.810;2022-09-09T03:03:13;16.80;94.10
20438;DHT22;17436;50.338;8.810;2022-09-09T03:05:42;17.00;93.50
20438;DHT22;17436;50.338;8.810;2022-09-09T03:08:10;17.00;92.90
20438;DHT22;17436;50.338;8.810;2022-09-09T03:10:36;16.90;93.80
20438;DHT22;17436;50.338;8.810;2022-09-09T03:13:03;17.00;93.50
20438;DHT22;17436;50.338;8.810;2022-09-09T03:15:31;17.00;94.10
20438;DHT22;17436;50.338;8.810;2022-09-09T03:17:58;17.00;94.30
20438;DHT22;17436;50.338;8.810;2022-09-09T03:20:29;17.10;94.00
20438;DHT22;17436;50.338;8.810;2022-09-09T03:22:58;17.10;93.30
20438;DHT22;17436;50.338;8.810;2022-09-09T03:25:25;16.80;96.10
20438;DHT22;17436;50.338;8.810;2022-09-09T03:27:53;16.90;95.60
20438;DHT22;17436;50.338;8.810;2022-09-09T03:30:20;16.90;94.90
20438;DHT22;17436;50.338;8.810;2022-09-09T03:32:47;17.00;94.90
20438;DHT22;17436;50.338;8.810;2022-09-09T03:35:14;17.00;94.40
20438;DHT22;17436;50.338;8.810;2022-09-09T03:37:42;17.00;94.80
20438;DHT22;17436;50.338;8.810;2022-09-09T03:40:09;17.20;94.20
20438;DHT22;17436;50.338;8.810;2022-09-09T03:42:36;17.20;93.00
20438;DHT22;17436;50.338;8.810;2022-09-09T03:45:04;17.00;94.00
20438;DHT22;17436;50.338;8.810;2022-09-09T03:47:31;17.00;94.50
20438;DHT22;17436;50.338;8.810;2022-09-09T03:49:58;17.00;95.00
20438;DHT22;17436;50.338;8.810;2022-09-09T03:52:25;17.10;94.50
20438;DHT22;17436;50.338;8.810;2022-09-09T03:54:53;17.10;94.10
20438;DHT22;17436;50.338;8.810;2022-09-09T03:57:20;17.10;94.40
20438;DHT22;17436;50.338;8.810;2022-09-09T03:59:47;17.00;95.40
20438;DHT22;17436;50.338;8.810;2022-09-09T04:02:14;16.90;96.30
20438;DHT22;17436;50.338;8.810;2022-09-09T04:04:41;16.80;96.70
20438;DHT22;17436;50.338;8.810;2022-09-09T04:07:08;16.70;97.60
20438;DHT22;17436;50.338;8.810;2022-09-09T04:09:34;16.70;97.80
20438;DHT22;17436;50.338;8.810;2022-09-09T04:12:07;16.80;98.70
20438;DHT22;17436;50.338;8.810;2022-09-09T04:14:36;16.80;98.00
20438;DHT22;17436;50.338;8.810;2022-09-09T04:17:03;16.80;97.30
20438;DHT22;17436;50.338;8.810;2022-09-09T04:19:31;16.80;98.60
20438;DHT22;17436;50.338;8.810;2022-09-09T04:21:58;16.90;98.10
20438;DHT22;17436;50.338;8.810;2022-09-09T04:24:25;16.90;97.70
20438;DHT22;17436;50.338;8.810;2022-09-09T04:26:54;16.90;97.40
20438;DHT22;17436;50.338;8.810;2022-09-09T04:29:22;17.00;97.70
20438;DHT22;17436;50.338;8.810;2022-09-09T04:31:49;17.10;97.30
20438;DHT22;17436;50.338;8.810;2022-09-09T04:34:16;17.10;96.40
20438;DHT22;17436;50.338;8.810;2022-09-09T04:36:42;17.20;95.90
20438;DHT22;17436;50.338;8.810;2022-09-09T04:39:09;17.20;95.60
20438;DHT22;17436;50.338;8.810;2022-09-09T04:41:36;17.30;95.30
20438;DHT22;17436;50.338;8.810;2022-09-09T04:44:03;17.20;95.50
20438;DHT22;17436;50.338;8.810;2022-09-09T04:46:31;17.20;95.30
20438;DHT22;17436;50.338;8.810;2022-09-09T04:48:59;17.20;94.60
20438;DHT22;17436;50.338;8.810;2022-09-09T04:51:26;17.00;96.80
20438;DHT22;17436;50.338;8.810;2022-09-09T04:53:53;16.90;97.00
20438;DHT22;17436;50.338;8.810;2022-09-09T04:56:20;16.90;98.10
20438;DHT22;17436;50.338;8.810;2022-09-09T04:58:47;16.90;98.10
20438;DHT22;17436;50.338;8.810;2022-09-09T05:01:15;16.90;97.90
20438;DHT22;17436;50.338;8.810;2022-09-09T05:03:44;17.00;97.90
20438;DHT22;17436;50.338;8.810;2022-09-09T05:06:13;16.90;98.30
20438;DHT22;17436;50.338;8.810;2022-09-09T05:08:42;17.00;98.60
20438;DHT22;17436;50.338;8.810;2022-09-09T05:11:19;17.10;97.50
20438;DHT22;17436;50.338;8.810;2022-09-09T05:13:47;17.10;97.50
20438;DHT22;17436;50.338;8.810;2022-09-09T05:16:15;17.20;97.20
20438;DHT22;17436;50.338;8.810;2022-09-09T05:18:44;17.30;96.60
20438;DHT22;17436;50.338;8.810;2022-09-09T05:21:12;17.20;96.20
20438;DHT22;17436;50.338;8.810;2022-09-09T05:23:39;17.20;96.40
20438;DHT22;17436;50.338;8.810;2022-09-09T05:26:09;17.30;95.90
20438;DHT22;17436;50.338;8.810;2022-09-09T05:28:37;17.30;95.50
20438;DHT22;17436;50.338;8.810;2022-09-09T05:31:05;17.10;97.20
20438;DHT22;17436;50.338;8.810;2022-09-09T05:33:34;17.20;97.00
20438;DHT22;17436;50.338;8.810;2022-09-09T05:36:06;17.40;96.80
20438;DHT22;17436;50.338;8.810;2022-09-09T05:38:34;17.30;96.00
20438;DHT22;17436;50.338;8.810;2022-09-09T05:41:02;16.90;97.90
20438;DHT22;17436;50.338;8.810;2022-09-09T05:43:29;16.90;99.40
20438;DHT22;17436;50.338;8.810;2022-09-09T05:46:02;16.80;99.90
20438;DHT22;17436;50.338;8.810;2022-09-09T05:48:30;16.80;99.80
20438;DHT22;17436;50.338;8.810;2022-09-09T05:50:57;16.80;99.10
20438;DHT22;17436;50.338;8.810;2022-09-09T05:53:26;16.80;99.70
20438;DHT22;17436;50.338;8.810;2022-09-09T05:55:59;17.00;99.90
20438;DHT22;17436;50.338;8.810;2022-09-09T05:58:26;17.10;99.10
20438;DHT22;17436;50.338;8.810;2022-09-09T06:00:53;17.20;98.70
20438;DHT22;17436;50.338;8.810;2022-09-09T06:03:26;17.30;97.80
20438;DHT22;17436;50.338;8.810;2022-09-09T06:05:58;17.40;97.50
20438;DHT22;17436;50.338;8.810;2022-09-09T06:08:27;17.40;97.10
20438;DHT22;17436;50.338;8.810;2022-09-09T06:11:01;17.50;96.30
20438;DHT22;17436;50.338;8.810;2022-09-09T06:13:29;17.60;96.10
20438;DHT22;17436;50.338;8.810;2022-09-09T06:15:56;17.70;95.40
20438;DHT22;17436;50.338;8.810;2022-09-09T06:18:23;17.80;94.20
20438;DHT22;17436;50.338;8.810;2022-09-09T06:20:55;17.90;94.00
20438;DHT22;17436;50.338;8.810;2022-09-09T06:23:22;17.80;93.70
20438;DHT22;17436;50.338;8.810;2022-09-09T06:25:50;18.00;93.50
20438;DHT22;17436;50.338;8.810;2022-09-09T06:28:17;18.20;93.30
20438;DHT22;17436;50.338;8.810;2022-09-09T06:30:44;18.40;92.40
20438;DHT22;17436;50.338;8.810;2022-09-09T06:33:11;18.40;91.90
20438;DHT22;17436;50.338;8.810;2022-09-09T06:35:37;18.30;90.90
20438;DHT22;17436;50.338;8.810;2022-09-09T06:38:04;18.20;90.90
20438;DHT22;17436;50.338;8.810;2022-09-09T06:40:31;18.20;91.10
20438;DHT22;17436;50.338;8.810;2022-09-09T06:43:00;18.20;91.30
20438;DHT22;17436;50.338;8.810;2022-09-09T06:45:27;18.10;91.30
20438;DHT22;17436;50.338;8.810;2022-09-09T06:47:55;18.40;91.10
20438;DHT22;17436;50.338;8.810;2022-09-09T06:50:23;18.90;89.90
20438;DHT22;17436;50.338;8.810;2022-09-09T06:52:49;18.90;85.40
20438;DHT22;17436;50.338;8.810;2022-09-09T06:55:17;18.50;86.70
20438;DHT22;17436;50.338;8.810;2022-09-09T06:57:44;18.30;86.80
20438;DHT22;17436;50.338;8.810;2022-09-09T07:00:13;18.20;88.30
20438;DHT22;17436;50.338;8.810;2022-09-09T07:02:40;18.20;85.90
20438;DHT22;17436;50.338;8.810;2022-09-09T07:05:08;18.30;89.80
20438;DHT22;17436;50.338;8.810;2022-09-09T07:07:35;18.40;90.00
20438;DHT22;17436;50.338;8.810;2022-09-09T07:10:02;18.40;87.20
20438;DHT22;17436;50.338;8.810;2022-09-09T07:12:30;18.40;86.20
20438;DHT22;17436;50.338;8.810;2022-09-09T07:14:57;18.50;87.10
20438;DHT22;17436;50.338;8.810;2022-09-09T07:17:25;18.40;88.30
20438;DHT22;17436;50.338;8.810;2022-09-09T07:19:51;18.50;87.20
20438;DHT22;17436;50.338;8.810;2022-09-09T07:22:18;18.40;88.20
20438;DHT22;17436;50.338;8.810;2022-09-09T07:24:45;18.40;86.30
20438;DHT22;17436;50.338;8.810;2022-09-09T07:27:12;18.50;87.60
20438;DHT22;17436;50.338;8.810;2022-09-09T07:29:39;18.40;89.70
20438;DHT22;17436;50.338;8.810;2022-09-09T07:32:05;18.40;90.40
20438;DHT22;17436;50.338;8.810;2022-09-09T07:34:33;18.50;88.60
20438;DHT22;17436;50.338;8.810;2022-09-09T07:37:00;18.50;87.50
20438;DHT22;17436;50.338;8.810;2022-09-09T07:39:27;18.60;88.10
20438;DHT22;17436;50.338;8.810;2022-09-09T07:41:54;18.60;86.60
20438;DHT22;17436;50.338;8.810;2022-09-09T07:44:22;18.40;87.70
20438;DHT22;17436;50.338;8.810;2022-09-09T07:46:50;18.50;89.20
20438;DHT22;17436;50.338;8.810;2022-09-09T07:49:17;18.40;87.40
20438;DHT22;17436;50.338;8.810;2022-09-09T07:51:46;18.50;86.30
20438;DHT22;17436;50.338;8.810;2022-09-09T07:54:16;18.60;86.20
20438;DHT22;17436;50.338;8.810;2022-09-09T07:56:46;18.60;85.30
20438;DHT22;17436;50.338;8.810;2022-09-09T07:59:13;18.60;86.20
20438;DHT22;17436;50.338;8.810;2022-09-09T08:01:42;18.60;84.70
20438;DHT22;17436;50.338;8.810;2022-09-09T08:04:10;18.70;84.90
20438;DHT22;17436;50.338;8.810;2022-09-09T08:06:41;18.60;80.90
20438;DHT22;17436;50.338;8.810;2022-09-09T08:09:10;18.60;84.70
20438;DHT22;17436;50.338;8.810;2022-09-09T08:11:38;18.80;83.20
20438;DHT22;17436;50.338;8.810;2022-09-09T08:14:05;18.80;82.10
20438;DHT22;17436;50.338;8.810;2022-09-09T08:16:35;18.90;83.30
20438;DHT22;17436;50.338;8.810;2022-09-09T08:19:03;19.00;78.30
20438;DHT22;17436;50.338;8.810;2022-09-09T08:21:30;18.80;77.80
20438;DHT22;17436;50.338;8.810;2022-09-09T08:24:00;18.70;78.10
20438;DHT22;17436;50.338;8.810;2022-09-09T08:26:32;18.60;78.00
20438;DHT22;17436;50.338;8.810;2022-09-09T08:29:01;18.70;80.80
20438;DHT22;17436;50.338;8.810;2022-09-09T08:31:30;18.80;81.20
20438;DHT22;17436;50.338;8.810;2022-09-09T08:33:57;19.00;78.30
20438;DHT22;17436;50.338;8.810;2022-09-09T08:36:29;19.10;78.40
20438;DHT22;17436;50.338;8.810;2022-09-09T08:38:59;19.20;76.60
20438;DHT22;17436;50.338;8.810;2022-09-09T08:41:49;19.20;73.60
20438;DHT22;17436;50.338;8.810;2022-09-09T08:44:27;19.00;73.70
20438;DHT22;17436;50.338;8.810;2022-09-09T08:47:05;19.10;74.60
20438;DHT22;17436;50.338;8.810;2022-09-09T08:49:47;19.30;71.60
20438;DHT22;17436;50.338;8.810;2022-09-09T08:52:19;19.40;70.20
20438;DHT22;17436;50.338;8.810;2022-09-09T08:54:48;19.30;71.20
20438;DHT22;17436;50.338;8.810;2022-09-09T08:57:20;19.40;68.30
20438;DHT22;17436;50.338;8.810;2022-09-09T08:59:52;19.50;70.20
20438;DHT22;17436;50.338;8.810;2022-09-09T09:02:24;19.40;64.60
20438;DHT22;17436;50.338;8.810;2022-09-09T09:04:59;19.50;64.80
20438;DHT22;17436;50.338;8.810;2022-09-09T09:07:46;19.30;64.70
20438;DHT22;17436;50.338;8.810;2022-09-09T09:10:34;19.40;65.60
20438;DHT22;17436;50.338;8.810;2022-09-09T09:13:08;19.50;67.40
20438;DHT22;17436;50.338;8.810;2022-09-09T09:15:38;19.50;62.90
20438;DHT22;17436;50.338;8.810;2022-09-09T09:18:10;19.30;60.40
20438;DHT22;17436;50.338;8.810;2022-09-09T09:20:44;19.40;61.20
20438;DHT22;17436;50.338;8.810;2022-09-09T09:23:22;19.40;64.00
20438;DHT22;17436;50.338;8.810;2022-09-09T09:25:56;19.40;68.70
20438;DHT22;17436;50.338;8.810;2022-09-09T09:28:29;19.30;67.90
20438;DHT22;17436;50.338;8.810;2022-09-09T09:30:59;19.30;70.50
20438;DHT22;17436;50.338;8.810;2022-09-09T09:33:30;19.20;74.70
20438;DHT22;17436;50.338;8.810;2022-09-09T09:35:58;18.90;78.20
20438;DHT22;17436;50.338;8.810;2022-09-09T09:38:27;18.50;84.50
20438;DHT22;17436;50.338;8.810;2022-09-09T09:40:56;18.30;91.00
20438;DHT22;17436;50.338;8.810;2022-09-09T09:43:26;18.30;93.40
20438;DHT22;17436;50.338;8.810;2022-09-09T09:45:53;18.40;93.70
20438;DHT22;17436;50.338;8.810;2022-09-09T09:48:20;18.50;94.90
20438;DHT22;17436;50.338;8.810;2022-09-09T09:50:49;18.10;95.00
20438;DHT22;17436;50.338;8.810;2022-09-09T09:53:21;18.10;90.90
20438;DHT22;17436;50.338;8.810;2022-09-09T09:55:56;17.90;82.50
20438;DHT22;17436;50.338;8.810;2022-09-09T09:58:26;17.90;77.50
20438;DHT22;17436;50.338;8.810;2022-09-09T10:00:55;17.70;67.80
20438;DHT22;17436;50.338;8.810;2022-09-09T10:03:24;17.90;77.30
20438;DHT22;17436;50.338;8.810;2022-09-09T10:05:52;17.80;70.60
20438;DHT22;17436;50.338;8.810;2022-09-09T10:08:20;18.10;77.50
20438;DHT22;17436;50.338;8.810;2022-09-09T10:11:03;18.20;82.30
20438;DHT22;17436;50.338;8.810;2022-09-09T10:13:39;18.40;87.10
20438;DHT22;17436;50.338;8.810;2022-09-09T10:16:19;18.40;80.80
20438;DHT22;17436;50.338;8.810;2022-09-09T10:18:58;18.80;83.50
20438;DHT22;17436;50.338;8.810;2022-09-09T10:21:37;19.10;88.00
20438;DHT22;17436;50.338;8.810;2022-09-09T10:24:30;19.30;91.10
20438;DHT22;17436;50.338;8.810;2022-09-09T10:27:05;19.10;86.80
20438;DHT22;17436;50.338;8.810;2022-09-09T10:30:03;18.90;87.80
20438;DHT22;17436;50.338;8.810;2022-09-09T10:32:38;18.90;92.00
20438;DHT22;17436;50.338;8.810;2022-09-09T10:35:12;18.90;90.40
20438;DHT22;17436;50.338;8.810;2022-09-09T10:37:57;18.90;91.60
20438;DHT22;17436;50.338;8.810;2022-09-09T10:40:32;18.80;91.90
20438;DHT22;17436;50.338;8.810;2022-09-09T10:43:07;18.60;93.50
20438;DHT22;17436;50.338;8.810;2022-09-09T10:45:51;18.50;93.50
20438;DHT22;17436;50.338;8.810;2022-09-09T10:48:36;18.60;94.70
20438;DHT22;17436;50.338;8.810;2022-09-09T10:51:20;19.00;95.10
20438;DHT22;17436;50.338;8.810;2022-09-09T10:53:56;19.20;92.80
20438;DHT22;17436;50.338;8.810;2022-09-09T10:56:28;19.10;92.50
20438;DHT22;17436;50.338;8.810;2022-09-09T10:58:58;19.10;90.60
20438;DHT22;17436;50.338;8.810;2022-09-09T11:01:31;19.10;89.90
20438;DHT22;17436;50.338;8.810;2022-09-09T11:04:03;19.10;91.30
20438;DHT22;17436;50.338;8.810;2022-09-09T11:06:35;19.10;91.50
20438;DHT22;17436;50.338;8.810;2022-09-09T11:09:03;19.00;92.40
20438;DHT22;17436;50.338;8.810;2022-09-09T11:11:36;19.00;86.90
20438;DHT22;17436;50.338;8.810;2022-09-09T11:14:10;19.30;91.10
20438;DHT22;17436;50.338;8.810;2022-09-09T11:16:42;19.70;94.10
20438;DHT22;17436;50.338;8.810;2022-09-09T11:19:16;20.00;95.40
20438;DHT22;17436;50.338;8.810;2022-09-09T11:21:46;20.00;92.10
20438;DHT22;17436;50.338;8.810;2022-09-09T11:24:18;19.60;90.70
20438;DHT22;17436;50.338;8.810;2022-09-09T11:26:52;19.90;92.90
20438;DHT22;17436;50.338;8.810;2022-09-09T11:29:59;20.10;90.40
20438;DHT22;17436;50.338;8.810;2022-09-09T11:32:51;20.10;91.90
20438;DHT22;17436;50.338;8.810;2022-09-09T11:35:39;20.20;90.30
20438;DHT22;17436;50.338;8.810;2022-09-09T11:38:25;20.00;77.90
20438;DHT22;17436;50.338;8.810;2022-09-09T11:40:57;19.70;78.90
20438;DHT22;17436;50.338;8.810;2022-09-09T11:43:31;19.50;78.70
20438;DHT22;17436;50.338;8.810;2022-09-09T11:46:00;19.60;78.90
20438;DHT22;17436;50.338;8.810;2022-09-09T11:48:34;19.70;81.80
20438;DHT22;17436;50.338;8.810;2022-09-09T11:51:05;19.70;70.50
20438;DHT22;17436;50.338;8.810;2022-09-09T11:53:33;19.90;70.30
20438;DHT22;17436;50.338;8.810;2022-09-09T11:56:05;20.10;75.30
20438;DHT22;17436;50.338;8.810;2022-09-09T11:58:38;20.40;78.10
20438;DHT22;17436;50.338;8.810;2022-09-09T12:01:39;20.60;68.80
20438;DHT22;17436;50.338;8.810;2022-09-09T12:04:22;20.40;70.80
20438;DHT22;17436;50.338;8.810;2022-09-09T12:06:57;20.10;70.30
20438;DHT22;17436;50.338;8.810;2022-09-09T12:09:32;20.10;72.40
20438;DHT22;17436;50.338;8.810;2022-09-09T12:12:16;20.20;73.30
20438;DHT22;17436;50.338;8.810;2022-09-09T12:14:59;20.20;68.20
20438;DHT22;17436;50.338;8.810;2022-09-09T12:17:31;20.10;68.10
20438;DHT22;17436;50.338;8.810;2022-09-09T12:20:12;20.00;73.40
20438;DHT22;17436;50.338;8.810;2022-09-09T12:22:55;20.10;70.40
20438;DHT22;17436;50.338;8.810;2022-09-09T12:25:30;20.00;75.90
20438;DHT22;17436;50.338;8.810;2022-09-09T12:28:04;20.10;72.10
20438;DHT22;17436;50.338;8.810;2022-09-09T12:30:35;20.20;75.90
20438;DHT22;17436;50.338;8.810;2022-09-09T12:33:10;20.20;78.40
20438;DHT22;17436;50.338;8.810;2022-09-09T12:35:39;20.30;72.50
20438;DHT22;17436;50.338;8.810;2022-09-09T12:38:11;20.40;71.20
20438;DHT22;17436;50.338;8.810;2022-09-09T12:40:40;20.40;67.30
20438;DHT22;17436;50.338;8.810;2022-09-09T12:43:17;20.50;63.40
20438;DHT22;17436;50.338;8.810;2022-09-09T12:45:45;20.70;57.60
20438;DHT22;17436;50.338;8.810;2022-09-09T12:48:17;20.80;48.80
20438;DHT22;17436;50.338;8.810;2022-09-09T12:50:48;20.70;43.50
20438;DHT22;17436;50.338;8.810;2022-09-09T12:53:21;20.70;35.00
20438;DHT22;17436;50.338;8.810;2022-09-09T12:55:53;20.70;41.00
20438;DHT22;17436;50.338;8.810;2022-09-09T12:58:20;20.60;43.00
20438;DHT22;17436;50.338;8.810;2022-09-09T13:00:51;20.60;42.30
20438;DHT22;17436;50.338;8.810;2022-09-09T13:03:19;20.50;35.50
20438;DHT22;17436;50.338;8.810;2022-09-09T13:05:49;20.50;37.00
20438;DHT22;17436;50.338;8.810;2022-09-09T13:08:17;20.50;39.40
20438;DHT22;17436;50.338;8.810;2022-09-09T13:10:48;20.60;33.10
20438;DHT22;17436;50.338;8.810;2022-09-09T13:13:21;20.60;32.40
20438;DHT22;17436;50.338;8.810;2022-09-09T13:15:49;20.60;35.00
20438;DHT22;17436;50.338;8.810;2022-09-09T13:18:20;20.60;30.10
20438;DHT22;17436;50.338;8.810;2022-09-09T13:20:49;20.60;32.30
20438;DHT22;17436;50.338;8.810;2022-09-09T13:23:18;20.60;32.30
20438;DHT22;17436;50.338;8.810;2022-09-09T13:25:53;20.60;41.40
20438;DHT22;17436;50.338;8.810;2022-09-09T13:28:22;20.60;28.80
20438;DHT22;17436;50.338;8.810;2022-09-09T13:30:56;20.70;26.40
20438;DHT22;17436;50.338;8.810;2022-09-09T13:33:30;20.60;21.00
20438;DHT22;17436;50.338;8.810;2022-09-09T13:36:02;20.60;19.40
20438;DHT22;17436;50.338;8.810;2022-09-09T13:38:32;20.60;21.60
20438;DHT22;17436;50.338;8.810;2022-09-09T13:41:01;20.70;24.30
20438;DHT22;17436;50.338;8.810;2022-09-09T13:43:31;20.60;28.00
20438;DHT22;17436;50.338;8.810;2022-09-09T13:46:01;20.60;30.20
20438;DHT22;17436;50.338;8.810;2022-09-09T13:48:28;20.50;32.20
20438;DHT22;17436;50.338;8.810;2022-09-09T13:51:00;20.50;26.20
20438;DHT22;17436;50.338;8.810;2022-09-09T13:53:27;20.50;26.30
20438;DHT22;17436;50.338;8.810;2022-09-09T13:55:55;20.40;24.60
20438;DHT22;17436;50.338;8.810;2022-09-09T13:58:22;20.30;24.50
20438;DHT22;17436;50.338;8.810;2022-09-09T14:00:51;20.40;29.30
20438;DHT22;17436;50.338;8.810;2022-09-09T14:03:18;20.40;28.70
20438;DHT22;17436;50.338;8.810;2022-09-09T14:05:45;20.50;27.20
20438;DHT22;17436;50.338;8.810;2022-09-09T14:08:21;20.40;23.10
20438;DHT22;17436;50.338;8.810;2022-09-09T14:10:48;20.40;26.50
20438;DHT22;17436;50.338;8.810;2022-09-09T14:13:14;20.40;23.80
20438;DHT22;17436;50.338;8.810;2022-09-09T14:15:41;20.40;25.70
20438;DHT22;17436;50.338;8.810;2022-09-09T14:18:11;20.40;27.20
20438;DHT22;17436;50.338;8.810;2022-09-09T14:20:37;20.40;28.20
20438;DHT22;17436;50.338;8.810;2022-09-09T14:23:04;20.40;25.00
20438;DHT22;17436;50.338;8.810;2022-09-09T14:25:33;20.30;26.40
20438;DHT22;17436;50.338;8.810;2022-09-09T14:28:00;20.40;26.90
20438;DHT22;17436;50.338;8.810;2022-09-09T14:30:27;20.30;24.80
20438;DHT22;17436;50.338;8.810;2022-09-09T14:32:54;20.20;23.60
20438;DHT22;17436;50.338;8.810;2022-09-09T14:35:22;20.00;21.10
20438;DHT22;17436;50.338;8.810;2022-09-09T14:37:50;20.00;22.40
20438;DHT22;17436;50.338;8.810;2022-09-09T14:40:17;19.90;22.40
20438;DHT22;17436;50.338;8.810;2022-09-09T14:42:45;20.00;25.80
20438;DHT22;17436;50.338;8.810;2022-09-09T14:45:12;20.00;23.40
20438;DHT22;17436;50.338;8.810;2022-09-09T14:47:39;19.90;23.30
20438;DHT22;17436;50.338;8.810;2022-09-09T14:50:06;19.90;23.30
20438;DHT22;17436;50.338;8.810;2022-09-09T14:52:33;19.90;23.90
20438;DHT22;17436;50.338;8.810;2022-09-09T14:55:00;19.90;23.20
20438;DHT22;17436;50.338;8.810;2022-09-09T14:57:27;19.90;23.50
20438;DHT22;17436;50.338;8.810;2022-09-09T14:59:55;19.90;24.70
20438;DHT22;17436;50.338;8.810;2022-09-09T15:02:22;19.90;25.10
20438;DHT22;17436;50.338;8.810;2022-09-09T15:04:49;19.90;25.20
20438;DHT22;17436;50.338;8.810;2022-09-09T15:07:18;20.00;24.90
20438;DHT22;17436;50.338;8.810;2022-09-09T15:09:45;19.90;23.20
20438;DHT22;17436;50.338;8.810;2022-09-09T15:12:13;19.90;23.90
20438;DHT22;17436;50.338;8.810;2022-09-09T15:14:40;19.90;23.50
20438;DHT22;17436;50.338;8.810;2022-09-09T15:17:09;20.00;25.70
20438;DHT22;17436;50.338;8.810;2022-09-09T15:19:36;20.00;24.70
20438;DHT22;17436;50.338;8.810;2022-09-09T15:22:03;20.00;25.70
20438;DHT22;17436;50.338;8.810;2022-09-09T15:24:30;19.90;24.50
20438;DHT22;17436;50.338;8.810;2022-09-09T15:26:57;20.00;25.60
20438;DHT22;17436;50.338;8.810;2022-09-09T15:29:25;20.00;24.80
20438;DHT22;17436;50.338;8.810;2022-09-09T15:31:56;20.10;24.40
20438;DHT22;17436;50.338;8.810;2022-09-09T15:34:24;20.20;24.30
20438;DHT22;17436;50.338;8.810;2022-09-09T15:36:50;20.30;24.70
20438;DHT22;17436;50.338;8.810;2022-09-09T15:39:18;20.30;23.70
20438;DHT22;17436;50.338;8.810;2022-09-09T15:41:46;20.30;24.90
20438;DHT22;17436;50.338;8.810;2022-09-09T15:44:14;20.40;26.70
20438;DHT22;17436;50.338;8.810;2022-09-09T15:46:43;20.40;22.90
20438;DHT22;17436;50.338;8.810;2022-09-09T15:49:12;20.20;23.00
20438;DHT22;17436;50.338;8.810;2022-09-09T15:51:42;20.10;23.30
20438;DHT22;17436;50.338;8.810;2022-09-09T15:54:09;20.00;25.70
20438;DHT22;17436;50.338;8.810;2022-09-09T15:56:37;20.00;26.10